Terminal Aerodrome Forecast
Issued by NWS

Home | Current Version | Previous Version | Text Only | Print | Product List | Glossary On
Versions: 1 2 3 4 5 6 7 8 9 10 11 12 13 14 15 16 17 18 19 20
000
FTUS44 KCRP 230200 AAB
TAFALI
TAF AMD
KALI 230251Z 2303/2324 16010KT P6SM VCTS SCT025CB OVC100
      TEMPO 2303/2305 5SM -TSRA BKN035CB
     FM230800 23007KT P6SM SCT020
      TEMPO 2308/2311 5SM BR SCT001
     FM231500 27011KT P6SM SKC=

USA.gov is the U.S. government's official web portal to all federal, state and local government web resources and services.